createdAt,value
2024-03-27T00:01:25.994Z,4.84
2024-03-27T00:05:01.272Z,4.95
2024-03-27T00:08:21.247Z,4.98
2024-03-27T00:11:39.337Z,5.14
2024-03-27T00:15:06.744Z,4.98
2024-03-27T00:18:30.997Z,5.17
2024-03-27T00:21:56.741Z,5.12
2024-03-27T00:25:22.105Z,5.12
2024-03-27T00:28:46.286Z,5.21
2024-03-27T00:32:11.279Z,5.45
2024-03-27T00:35:37.479Z,5.69
2024-03-27T00:39:10.316Z,5.70
2024-03-27T00:42:40.020Z,5.71
2024-03-27T00:46:00.178Z,5.90
2024-03-27T00:49:17.618Z,5.87
2024-03-27T00:52:35.520Z,5.94
2024-03-27T00:56:01.756Z,5.77
2024-03-27T00:59:19.282Z,5.65
2024-03-27T01:02:36.904Z,5.60
2024-03-27T01:05:55.049Z,5.62
2024-03-27T01:09:12.543Z,5.53
2024-03-27T01:12:30.228Z,5.56
2024-03-27T01:15:49.726Z,5.70
2024-03-27T01:19:04.932Z,5.83
2024-03-27T01:22:22.256Z,5.86
2024-03-27T01:25:39.803Z,5.89
2024-03-27T01:28:57.517Z,5.88
2024-03-27T01:32:15.824Z,5.83
2024-03-27T01:35:35.021Z,5.85
2024-03-27T01:38:53.994Z,5.75
2024-03-27T01:42:12.124Z,5.60
2024-03-27T01:45:29.792Z,5.70
2024-03-27T01:48:47.269Z,5.54
2024-03-27T01:52:05.251Z,5.54
2024-03-27T01:55:23.139Z,5.48
2024-03-27T01:58:40.758Z,5.43
2024-03-27T02:01:58.713Z,5.26
2024-03-27T02:05:17.742Z,5.39
2024-03-27T02:08:35.240Z,5.48
2024-03-27T02:11:53.032Z,5.61
2024-03-27T02:15:16.000Z,5.76
2024-03-27T02:18:33.551Z,5.83
2024-03-27T02:21:51.412Z,5.88
2024-03-27T02:25:14.725Z,5.78
2024-03-27T02:28:33.132Z,5.72
2024-03-27T02:31:53.627Z,5.72
2024-03-27T02:35:12.841Z,5.70
2024-03-27T02:38:36.048Z,5.67
2024-03-27T02:41:53.670Z,5.50
2024-03-27T02:45:12.160Z,5.60
2024-03-27T02:48:29.632Z,5.55
2024-03-27T02:51:47.207Z,5.76
2024-03-27T02:55:04.674Z,6.01
2024-03-27T02:58:22.191Z,6.22
2024-03-27T03:01:39.767Z,6.39
2024-03-27T03:04:57.064Z,6.29
2024-03-27T03:08:15.185Z,6.11
2024-03-27T03:11:32.660Z,5.92
2024-03-27T03:14:50.094Z,5.79
2024-03-27T03:18:07.311Z,5.55
2024-03-27T03:21:25.415Z,5.43
2024-03-27T03:24:42.943Z,5.38
2024-03-27T03:28:00.507Z,5.40
2024-03-27T03:31:19.298Z,5.35
2024-03-27T03:34:36.982Z,5.34
2024-03-27T03:37:54.573Z,5.44
2024-03-27T03:41:16.046Z,5.38
2024-03-27T03:44:33.652Z,5.29
2024-03-27T03:47:51.075Z,5.31
2024-03-27T03:51:08.619Z,5.30
2024-03-27T03:54:25.945Z,5.34
2024-03-27T03:57:43.316Z,5.35
2024-03-27T04:01:03.353Z,5.40
2024-03-27T04:04:20.692Z,5.40
2024-03-27T04:07:37.936Z,5.46
2024-03-27T04:10:55.661Z,5.47
2024-03-27T04:14:13.144Z,5.21
2024-03-27T04:17:30.534Z,5.05
2024-03-27T04:20:50.535Z,4.95
2024-03-27T04:24:08.078Z,4.98
2024-03-27T04:27:26.038Z,5.06
2024-03-27T04:30:45.104Z,4.91
2024-03-27T04:34:02.518Z,4.84
2024-03-27T04:37:20.191Z,4.65
2024-03-27T04:40:38.472Z,4.51
2024-03-27T04:43:55.824Z,4.63
2024-03-27T04:47:13.435Z,4.57
2024-03-27T04:50:31.192Z,4.44
2024-03-27T04:53:48.576Z,4.46
2024-03-27T04:57:06.041Z,4.49
2024-03-27T05:00:25.504Z,4.26
2024-03-27T05:03:43.276Z,4.35
2024-03-27T05:07:03.348Z,4.35
2024-03-27T05:10:21.370Z,4.24
2024-03-27T05:13:39.031Z,4.37
2024-03-27T05:16:57.123Z,4.44
2024-03-27T05:20:18.958Z,4.61
2024-03-27T05:23:36.208Z,4.77
2024-03-27T05:26:55.389Z,4.80
2024-03-27T05:30:14.925Z,4.95
2024-03-27T05:33:32.295Z,5.04
2024-03-27T05:36:49.788Z,5.18
2024-03-27T05:40:07.155Z,5.23
2024-03-27T05:43:24.896Z,5.24
2024-03-27T05:46:43.260Z,5.34
2024-03-27T05:50:01.243Z,5.43
2024-03-27T05:53:19.539Z,5.55
2024-03-27T05:56:37.256Z,5.74
2024-03-27T05:59:54.795Z,5.85
2024-03-27T06:03:12.697Z,5.92
2024-03-27T06:06:30.320Z,5.93
2024-03-27T06:09:47.561Z,6.12
2024-03-27T06:13:06.142Z,6.34
2024-03-27T06:16:26.587Z,6.40
2024-03-27T06:19:44.118Z,6.72
2024-03-27T06:23:01.789Z,6.91
2024-03-27T06:26:19.787Z,7.12
2024-03-27T06:29:37.407Z,7.35
2024-03-27T06:32:55.102Z,7.50
2024-03-27T06:36:13.326Z,7.65
2024-03-27T06:39:31.307Z,7.75
2024-03-27T06:42:49.715Z,7.82
2024-03-27T06:46:07.220Z,7.92
2024-03-27T06:49:26.491Z,8.16
2024-03-27T06:52:42.047Z,8.51
2024-03-27T06:55:59.091Z,9.13
2024-03-27T06:59:16.943Z,9.41
2024-03-27T07:02:34.344Z,9.60
2024-03-27T07:05:51.741Z,9.96
2024-03-27T07:09:10.692Z,10.55
2024-03-27T07:12:31.120Z,11.22
2024-03-27T07:15:52.018Z,12.01
2024-03-27T07:19:10.781Z,12.79
2024-03-27T07:22:28.479Z,13.15
2024-03-27T07:25:47.595Z,13.97
2024-03-27T07:29:05.428Z,14.69
2024-03-27T07:32:23.159Z,14.98
2024-03-27T07:35:40.654Z,15.27
2024-03-27T07:38:58.827Z,15.51
2024-03-27T07:42:16.543Z,15.97
2024-03-27T07:45:34.820Z,16.52
2024-03-27T07:48:54.205Z,16.98
2024-03-27T07:52:12.406Z,17.20
2024-03-27T07:55:30.889Z,17.62
2024-03-27T07:58:49.447Z,18.26
2024-03-27T08:02:06.894Z,18.79
2024-03-27T08:05:25.007Z,18.21
2024-03-27T08:08:43.286Z,18.25
2024-03-27T08:12:04.178Z,18.59
2024-03-27T08:15:22.091Z,19.45
2024-03-27T08:18:52.996Z,19.66
2024-03-27T08:22:10.848Z,19.21
2024-03-27T08:25:28.918Z,19.91
2024-03-27T08:28:46.752Z,20.04
2024-03-27T08:32:07.168Z,20.00
2024-03-27T08:35:24.070Z,19.89
2024-03-27T08:38:41.926Z,19.95
2024-03-27T08:42:00.370Z,20.73
2024-03-27T08:45:19.734Z,19.86
2024-03-27T08:48:37.674Z,20.19
2024-03-27T08:51:55.163Z,20.01
2024-03-27T08:55:14.648Z,19.85
2024-03-27T08:58:32.253Z,20.74
2024-03-27T09:01:52.346Z,20.28
2024-03-27T09:05:10.050Z,20.40
2024-03-27T09:08:27.562Z,20.94
2024-03-27T09:11:49.538Z,21.55
2024-03-27T09:20:20.391Z,21.70
2024-03-27T09:23:51.504Z,21.71
2024-03-27T09:27:22.468Z,21.38
2024-03-27T09:30:56.167Z,21.15
2024-03-27T09:34:30.694Z,20.17
2024-03-27T09:37:48.073Z,20.87
2024-03-27T09:41:08.182Z,20.98
2024-03-27T09:44:27.900Z,21.47
2024-03-27T09:47:50.142Z,21.86
2024-03-27T09:51:11.086Z,21.15
2024-03-27T09:54:30.495Z,21.26
2024-03-27T09:58:09.974Z,20.81
2024-03-27T10:01:49.604Z,20.78
2024-03-27T10:05:20.475Z,20.25
2024-03-27T10:08:45.613Z,20.39
2024-03-27T10:12:05.804Z,21.06
2024-03-27T10:15:23.842Z,20.99
2024-03-27T10:18:46.684Z,20.63
2024-03-27T10:22:05.249Z,19.80
2024-03-27T10:25:27.816Z,20.22
2024-03-27T10:28:56.720Z,20.39
2024-03-27T10:32:32.898Z,20.60
2024-03-27T10:35:59.315Z,20.28
2024-03-27T10:39:22.934Z,20.53
2024-03-27T10:42:44.020Z,20.60
2024-03-27T10:46:04.097Z,20.63
2024-03-27T10:49:23.076Z,20.66
2024-03-27T10:52:41.364Z,20.78
2024-03-27T10:56:00.196Z,20.80
2024-03-27T10:59:26.827Z,20.76
2024-03-27T11:03:16.366Z,20.55
2024-03-27T11:06:38.606Z,20.24
2024-03-27T11:10:02.429Z,20.46
2024-03-27T11:13:21.460Z,20.49
2024-03-27T11:16:53.887Z,20.22
2024-03-27T11:20:22.739Z,20.22
2024-03-27T11:23:51.292Z,20.33
2024-03-27T11:27:14.013Z,20.29
2024-03-27T11:30:34.210Z,20.03
2024-03-27T11:33:54.951Z,20.06
2024-03-27T11:37:14.177Z,19.94
2024-03-27T11:40:31.663Z,19.76
2024-03-27T11:43:48.940Z,19.65
2024-03-27T11:47:06.455Z,19.42
2024-03-27T11:50:24.640Z,19.48
2024-03-27T11:53:55.772Z,19.35
2024-03-27T11:57:16.719Z,19.21
2024-03-27T12:00:35.337Z,19.13
2024-03-27T12:03:54.564Z,19.15
2024-03-27T12:07:13.490Z,19.13
2024-03-27T12:10:28.703Z,19.04
2024-03-27T12:13:48.939Z,18.94
2024-03-27T12:17:08.060Z,18.93
2024-03-27T12:20:27.492Z,18.93
2024-03-27T12:23:49.784Z,19.03
2024-03-27T12:27:09.509Z,18.94
2024-03-27T12:30:31.460Z,18.94
2024-03-27T12:33:48.883Z,18.93
2024-03-27T12:37:08.006Z,18.88
2024-03-27T12:40:25.902Z,18.77
2024-03-27T12:43:44.553Z,18.79
2024-03-27T12:47:01.766Z,18.65
2024-03-27T12:50:19.788Z,18.63
2024-03-27T12:53:39.673Z,18.73
2024-03-27T12:57:04.033Z,18.72
2024-03-27T13:00:27.415Z,18.72
2024-03-27T13:03:46.187Z,18.73
2024-03-27T13:07:11.276Z,18.70
2024-03-27T13:10:38.186Z,18.64
2024-03-27T13:13:56.618Z,18.56
2024-03-27T13:17:17.551Z,18.49
2024-03-27T13:20:37.621Z,18.38
2024-03-27T13:23:58.287Z,18.31
2024-03-27T13:27:16.495Z,18.22
2024-03-27T13:30:35.188Z,18.27
2024-03-27T13:33:54.463Z,18.31
2024-03-27T13:37:12.837Z,18.29
2024-03-27T13:40:30.778Z,18.11
2024-03-27T13:43:49.491Z,18.06
2024-03-27T13:47:06.806Z,18.01
2024-03-27T13:50:24.307Z,17.80
2024-03-27T13:53:44.320Z,17.84
2024-03-27T13:57:02.196Z,17.83
2024-03-27T14:00:25.808Z,17.78
2024-03-27T14:03:45.355Z,17.77
2024-03-27T14:07:02.650Z,17.72
2024-03-27T14:10:21.307Z,17.71
2024-03-27T14:13:39.234Z,17.68
2024-03-27T14:16:58.302Z,17.67
2024-03-27T14:20:22.048Z,17.60
2024-03-27T14:23:41.524Z,17.52
2024-03-27T14:27:02.475Z,17.39
2024-03-27T14:30:26.025Z,17.30
2024-03-27T14:33:54.714Z,17.09
2024-03-27T14:37:15.690Z,16.94
2024-03-27T14:41:09.176Z,16.87
2024-03-27T14:44:35.674Z,16.73
2024-03-27T14:47:53.228Z,16.56
2024-03-27T14:51:13.287Z,16.71
2024-03-27T14:54:30.403Z,16.71
2024-03-27T14:57:49.633Z,16.58
2024-03-27T15:01:08.414Z,16.39
2024-03-27T15:04:28.483Z,16.30
2024-03-27T15:07:46.458Z,16.29
2024-03-27T15:11:06.512Z,16.28
2024-03-27T15:14:24.876Z,16.14
2024-03-27T15:17:39.908Z,16.12
2024-03-27T15:20:57.043Z,16.18
2024-03-27T15:24:15.379Z,16.20
2024-03-27T15:27:37.519Z,16.20
2024-03-27T15:30:55.640Z,16.21
2024-03-27T15:34:14.794Z,16.19
2024-03-27T15:37:31.570Z,16.16
2024-03-27T15:40:50.459Z,16.13
2024-03-27T15:44:09.173Z,16.13
2024-03-27T15:47:32.956Z,16.03
2024-03-27T15:50:51.355Z,16.04
2024-03-27T15:54:21.517Z,16.05
2024-03-27T15:57:39.644Z,16.08
2024-03-27T16:00:58.622Z,15.90
2024-03-27T16:04:23.074Z,15.86
2024-03-27T16:07:33.388Z,15.88
2024-03-27T16:10:58.452Z,15.80
2024-03-27T16:14:15.618Z,15.73
2024-03-27T16:17:33.864Z,15.64
2024-03-27T16:20:51.421Z,15.48
2024-03-27T16:24:08.728Z,15.52
2024-03-27T16:27:26.059Z,15.34
2024-03-27T16:30:45.408Z,15.10
2024-03-27T16:34:01.583Z,15.09
2024-03-27T16:37:20.405Z,15.03
2024-03-27T16:40:37.635Z,14.81
2024-03-27T16:43:54.982Z,14.65
2024-03-27T16:47:12.877Z,14.60
2024-03-27T16:50:30.074Z,14.43
2024-03-27T16:53:47.807Z,14.33
2024-03-27T16:57:07.419Z,14.34
2024-03-27T17:00:32.781Z,14.18
2024-03-27T17:03:53.213Z,14.12
2024-03-27T17:07:10.773Z,14.11
2024-03-27T17:10:28.922Z,14.03
2024-03-27T17:13:47.229Z,13.90
2024-03-27T17:17:05.253Z,13.67
2024-03-27T17:20:24.016Z,13.61
2024-03-27T17:23:42.131Z,13.66
2024-03-27T17:27:02.306Z,13.63
2024-03-27T17:30:22.169Z,13.60
2024-03-27T17:33:40.171Z,13.64
2024-03-27T17:36:57.622Z,13.59
2024-03-27T17:40:18.635Z,13.54
2024-03-27T17:43:41.396Z,13.46
2024-03-27T17:46:59.959Z,13.27
2024-03-27T17:50:19.667Z,13.38
2024-03-27T17:53:38.695Z,13.29
2024-03-27T17:56:58.459Z,13.29
2024-03-27T18:00:25.465Z,13.30
2024-03-27T18:03:43.897Z,13.27
2024-03-27T18:07:02.817Z,13.18
2024-03-27T18:10:20.207Z,13.20
2024-03-27T18:13:43.657Z,13.25
2024-03-27T18:17:01.030Z,13.21
2024-03-27T18:20:20.760Z,13.07
2024-03-27T18:23:38.565Z,13.10
2024-03-27T18:27:01.364Z,13.18
2024-03-27T18:30:21.030Z,13.18
2024-03-27T18:33:39.614Z,13.02
2024-03-27T18:36:57.063Z,12.97
2024-03-27T18:40:16.925Z,12.82
2024-03-27T18:43:34.454Z,12.87
2024-03-27T18:46:52.345Z,12.90
2024-03-27T18:50:12.199Z,12.94
2024-03-27T18:53:31.435Z,12.93
2024-03-27T18:56:48.992Z,12.96
2024-03-27T19:00:10.470Z,12.96
2024-03-27T19:03:28.436Z,12.93
2024-03-27T19:06:44.618Z,12.77
2024-03-27T19:10:02.547Z,12.77
2024-03-27T19:13:23.696Z,12.76
2024-03-27T19:16:41.050Z,12.72
2024-03-27T19:20:00.407Z,12.73
2024-03-27T19:23:18.057Z,12.69
2024-03-27T19:26:36.877Z,12.62
2024-03-27T19:29:54.546Z,12.58
2024-03-27T19:33:12.346Z,12.55
2024-03-27T19:36:30.491Z,12.46
2024-03-27T19:39:49.855Z,12.43
2024-03-27T19:43:07.227Z,12.37
2024-03-27T19:46:27.029Z,12.31
2024-03-27T19:49:44.348Z,12.25
2024-03-27T19:53:03.795Z,12.26
2024-03-27T19:56:21.514Z,12.26
2024-03-27T19:59:38.989Z,12.25
2024-03-27T20:02:57.833Z,12.25
2024-03-27T20:06:15.740Z,12.17
2024-03-27T20:09:34.654Z,12.08
2024-03-27T20:12:52.125Z,11.98
2024-03-27T20:16:13.114Z,11.93
2024-03-27T20:19:31.742Z,11.88
2024-03-27T20:22:50.756Z,11.91
2024-03-27T20:26:10.069Z,11.93
2024-03-27T20:29:27.681Z,11.92
2024-03-27T20:32:48.489Z,11.84
2024-03-27T20:36:06.772Z,11.79
2024-03-27T20:39:25.840Z,11.77
2024-03-27T20:42:44.091Z,11.78
2024-03-27T20:46:02.145Z,11.78
2024-03-27T20:49:21.800Z,11.74
2024-03-27T20:52:40.167Z,11.74
2024-03-27T20:56:01.974Z,11.71
2024-03-27T20:59:25.751Z,11.68
2024-03-27T21:02:43.504Z,11.67
2024-03-27T21:06:01.775Z,11.57
2024-03-27T21:09:19.127Z,11.54
2024-03-27T21:12:38.206Z,11.53
2024-03-27T21:15:55.638Z,11.46
2024-03-27T21:19:15.073Z,11.44
2024-03-27T21:22:32.797Z,11.37
2024-03-27T21:25:50.912Z,11.35
2024-03-27T21:29:09.185Z,11.26
2024-03-27T21:32:27.215Z,11.29
2024-03-27T21:35:45.415Z,11.28
2024-03-27T21:39:06.510Z,11.17
2024-03-27T21:42:25.424Z,11.20
2024-03-27T21:45:44.210Z,11.20
2024-03-27T21:49:01.558Z,11.17
2024-03-27T21:52:19.413Z,11.07
2024-03-27T21:55:36.663Z,11.04
2024-03-27T21:58:55.344Z,11.09
2024-03-27T22:02:12.985Z,11.12
2024-03-27T22:05:30.676Z,11.16
2024-03-27T22:08:48.216Z,11.09
2024-03-27T22:12:45.516Z,11.11
2024-03-27T22:16:02.766Z,11.05
2024-03-27T22:19:20.122Z,11.05
2024-03-27T22:22:37.822Z,11.04
2024-03-27T22:25:58.150Z,10.91
2024-03-27T22:32:56.089Z,10.34
2024-03-27T22:36:19.895Z,10.07
2024-03-27T22:39:39.707Z,9.84
2024-03-27T22:42:58.654Z,9.80
2024-03-27T22:46:21.080Z,9.91
2024-03-27T22:49:39.269Z,10.00
2024-03-27T22:52:56.615Z,9.84
2024-03-27T22:56:16.596Z,9.92
2024-03-27T22:59:35.264Z,9.93
2024-03-27T23:02:53.106Z,9.86
2024-03-27T23:06:11.116Z,9.75
2024-03-27T23:09:28.651Z,9.84
2024-03-27T23:12:46.337Z,10.08
2024-03-27T23:16:04.090Z,10.28
2024-03-27T23:19:21.317Z,10.40
2024-03-27T23:22:38.611Z,10.44
2024-03-27T23:25:56.011Z,10.27
2024-03-27T23:29:13.471Z,10.18
2024-03-27T23:32:30.888Z,10.34
2024-03-27T23:35:48.291Z,10.33
2024-03-27T23:39:06.277Z,10.43
2024-03-27T23:42:23.570Z,10.46
2024-03-27T23:45:40.810Z,10.56
2024-03-27T23:48:58.059Z,10.68
2024-03-27T23:52:15.522Z,10.73
2024-03-27T23:55:32.899Z,10.68
2024-03-27T23:58:50.147Z,10.65
